Jacksonville Naval Air Station Jacksonville US
ICAO: KNIP
IATA: NIP
Category: Medium
Scheduled Services: No

Elevation: 21 ft
TransAlt. 18000 ft.

Airport Communications:
APP/DEP:123.8
ATIS:28.1
CLNC DEL:134.775
GND:128.6
ATCOM:672.3
NAVY JAX OPS:31.02
PMSV METRO:34.35
TWR:120

KNIP Zoom In..

Runways:

(A) RW 10 length 8002 ft width 200 ft
---- / hdg 95

(B) RW 14 length 5980 ft width 200 ft
---- / hdg 141

(C) RW 28 length 8002 ft width 200 ft
---- / hdg 275

(D) RW 32 length 5980 ft width 200 ft
---- / hdg 321

Location; KNIP
Day. 20 / Time. 09.53 Zulu
* Altimeter: 30.11
* Temperature: 19° c. 66.2°f.
* Wind from: 020° Speed 13 kn.
Dewpoint: 11° c.
Visibility: 10 Statute Miles.
Clouds: Broken 6000 ft.
Clouds: Broken 25000 ft.

KNIP 200953Z 02013KT 10SM BKN060 BKN250 19/11 A3011 RMK AO2 SLP192 T01940106


Wind From 020°
Speed 13 kn.

  YouTube Music Video
 
jpsmedia.com for Web Design  worldairports.se 2018   terms of use